Walton, Texas
Current Conditions -  °F | °C
As of 9:55 AM on Thursday 27 Nov 2014 (Local Time) from KF44 Reporting Station
Clear Clear  
Wind Chill: 44°   Ceiling: Unl
Heat Index: 46°   Visibility: 10mi
Dew Point: 27°   Wind: 5mph
Humidity: 46%   Direction: 40°NE
Pressure: 30.54"   Gusts: NA
Location:  32.2052°N, 95.8517°W
Report Text: KF44 271555Z AUTO 04004KT 10SM CLR 08/M03 A3054 RMK AO2
Loading
Personal Weather Stations






























Interactive Weather Map New forecast layout! Learn more

10-Day Weather Forecast

Advertisements
Track Severe Weather on mobile